createdAt,value
2018-06-10T00:00:59.005Z,9.30
2018-06-10T00:03:27.437Z,9.70
2018-06-10T00:05:55.917Z,8.87
2018-06-10T00:08:24.377Z,10.27
2018-06-10T00:10:52.833Z,9.87
2018-06-10T00:13:21.389Z,9.43
2018-06-10T00:15:49.916Z,9.60
2018-06-10T00:18:18.157Z,10.10
2018-06-10T00:20:46.678Z,11.10
2018-06-10T00:23:15.133Z,10.50
2018-06-10T00:25:43.595Z,10.13
2018-06-10T00:28:12.045Z,10.40
2018-06-10T00:30:40.495Z,10.47
2018-06-10T00:33:09.008Z,10.40
2018-06-10T00:35:37.513Z,11.33
2018-06-10T00:38:06.068Z,9.30
2018-06-10T00:40:34.473Z,10.70
2018-06-10T00:43:03.619Z,10.80
2018-06-10T00:45:32.173Z,10.73
2018-06-10T00:48:00.624Z,9.70
2018-06-10T00:50:29.037Z,10.97
2018-06-10T00:52:57.506Z,10.90
2018-06-10T00:55:25.969Z,9.23
2018-06-10T00:57:54.431Z,11.00
2018-06-10T01:00:22.853Z,9.97
2018-06-10T01:02:51.298Z,10.60
2018-06-10T01:05:19.776Z,9.73
2018-06-10T01:07:48.209Z,11.37
2018-06-10T01:10:16.684Z,10.90
2018-06-10T01:12:45.149Z,10.97
2018-06-10T01:15:13.599Z,12.03
2018-06-10T01:17:42.648Z,11.13
2018-06-10T01:20:11.153Z,11.93
2018-06-10T01:22:39.929Z,11.20
2018-06-10T01:25:08.361Z,11.30
2018-06-10T01:27:36.799Z,11.70
2018-06-10T01:30:05.324Z,11.13
2018-06-10T01:32:33.827Z,12.13
2018-06-10T01:35:02.345Z,10.77
2018-06-10T01:37:30.525Z,11.63
2018-06-10T01:39:58.980Z,10.40
2018-06-10T01:42:28.026Z,11.33
2018-06-10T01:44:56.545Z,12.03
2018-06-10T01:47:25.796Z,10.90
2018-06-10T01:49:54.262Z,11.30
2018-06-10T01:52:22.667Z,10.97
2018-06-10T01:54:51.125Z,11.90
2018-06-10T01:57:19.681Z,12.57
2018-06-10T01:59:48.156Z,11.27
2018-06-10T02:02:16.614Z,12.07
2018-06-10T02:04:45.094Z,10.87
2018-06-10T02:07:13.545Z,12.33
2018-06-10T02:09:42.037Z,11.53
2018-06-10T02:12:10.445Z,12.03
2018-06-10T02:14:38.902Z,11.90
2018-06-10T02:17:07.382Z,12.23
2018-06-10T02:19:36.016Z,12.73
2018-06-10T02:22:04.508Z,11.87
2018-06-10T02:24:32.957Z,12.60
2018-06-10T02:27:01.416Z,11.73
2018-06-10T02:29:29.848Z,12.03
2018-06-10T02:31:58.373Z,11.77
2018-06-10T02:34:26.886Z,12.33
2018-06-10T02:36:55.389Z,11.90
2018-06-10T02:39:23.845Z,12.47
2018-06-10T02:41:52.301Z,12.57
2018-06-10T02:44:20.753Z,11.93
2018-06-10T02:46:49.200Z,12.00
2018-06-10T02:49:17.665Z,13.47
2018-06-10T02:51:46.488Z,12.40
2018-06-10T02:54:14.957Z,12.70
2018-06-10T02:56:43.357Z,12.77
2018-06-10T02:59:11.825Z,13.30
2018-06-10T03:01:40.275Z,13.70
2018-06-10T03:04:08.736Z,13.90
2018-06-10T03:06:37.300Z,12.67
2018-06-10T03:09:07.193Z,14.10
2018-06-10T03:11:35.634Z,13.27
2018-06-10T03:14:04.138Z,13.87
2018-06-10T03:16:32.579Z,13.57
2018-06-10T03:26:01.235Z,14.23
2018-06-10T03:28:29.707Z,13.93
2018-06-10T03:30:58.314Z,13.80
2018-06-10T03:33:26.752Z,14.23
2018-06-10T03:35:55.277Z,15.10
2018-06-10T03:38:23.949Z,14.67
2018-06-10T03:40:52.426Z,17.97
2018-06-10T03:43:21.505Z,15.97
2018-06-10T03:45:50.009Z,15.77
2018-06-10T03:48:18.457Z,18.13
2018-06-10T03:50:46.942Z,14.80
2018-06-10T03:53:15.388Z,16.77
2018-06-10T03:55:43.828Z,15.10
2018-06-10T03:58:12.245Z,16.20
2018-06-10T04:00:40.756Z,15.23
2018-06-10T04:03:09.212Z,16.03
2018-06-10T04:05:37.729Z,16.10
2018-06-10T04:08:06.206Z,16.17
2018-06-10T04:10:34.684Z,16.00
2018-06-10T04:13:03.385Z,16.00
2018-06-10T04:15:31.526Z,16.60
2018-06-10T04:18:00.068Z,17.03
2018-06-10T04:20:28.488Z,17.20
2018-06-10T04:22:56.962Z,15.83
2018-06-10T04:25:25.553Z,15.00
2018-06-10T04:27:54.149Z,16.83
2018-06-10T04:30:22.588Z,17.27
2018-06-10T04:32:51.034Z,16.30
2018-06-10T04:35:19.474Z,14.60
2018-06-10T04:37:48.079Z,19.50
2018-06-10T04:40:16.512Z,17.47
2018-06-10T04:42:45.017Z,17.97
2018-06-10T04:45:13.449Z,17.90
2018-06-10T04:47:41.975Z,16.40
2018-06-10T04:50:10.444Z,16.60
2018-06-10T04:52:38.881Z,16.40
2018-06-10T04:55:07.052Z,15.70
2018-06-10T04:57:35.497Z,17.70
2018-06-10T05:00:04.128Z,16.70
2018-06-10T05:02:32.543Z,15.67
2018-06-10T05:05:00.996Z,15.10
2018-06-10T05:07:30.162Z,17.13
2018-06-10T05:09:58.620Z,16.13
2018-06-10T05:12:27.066Z,16.17
2018-06-10T05:14:55.529Z,17.33
2018-06-10T05:17:23.954Z,17.20
2018-06-10T05:19:52.674Z,16.43
2018-06-10T05:22:21.071Z,17.20
2018-06-10T05:24:49.487Z,22.83
2018-06-10T05:27:17.930Z,26.80
2018-06-10T05:29:46.386Z,31.13
2018-06-10T05:32:14.818Z,28.20
2018-06-10T05:34:43.329Z,33.07
2018-06-10T05:37:12.509Z,31.93
2018-06-10T05:39:40.945Z,37.80
2018-06-10T05:42:10.142Z,36.30
2018-06-10T05:44:38.619Z,34.50
2018-06-10T05:47:07.228Z,30.63
2018-06-10T05:49:35.673Z,32.27
2018-06-10T05:52:04.343Z,34.23
2018-06-10T05:54:32.765Z,31.27
2018-06-10T05:57:01.382Z,31.10
2018-06-10T05:59:29.809Z,31.23
2018-06-10T06:01:58.225Z,29.50
2018-06-10T06:04:26.685Z,30.73
2018-06-10T06:06:55.114Z,29.30
2018-06-10T06:09:23.651Z,26.70
2018-06-10T06:11:52.181Z,26.73
2018-06-10T06:14:20.807Z,25.63
2018-06-10T06:16:49.340Z,27.20
2018-06-10T06:19:17.793Z,27.27
2018-06-10T06:21:46.259Z,23.70
2018-06-10T06:24:14.718Z,27.13
2018-06-10T06:26:43.197Z,24.23
2018-06-10T06:29:11.612Z,25.93
2018-06-10T06:31:40.105Z,25.90
2018-06-10T06:34:08.584Z,25.03
2018-06-10T06:36:37.097Z,24.50
2018-06-10T06:39:07.556Z,24.47
2018-06-10T06:41:36.002Z,22.83
2018-06-10T06:44:04.453Z,23.47
2018-06-10T06:46:32.968Z,23.30
2018-06-10T06:49:01.454Z,21.63
2018-06-10T06:51:29.863Z,22.60
2018-06-10T06:53:58.296Z,21.77
2018-06-10T06:56:26.765Z,21.87
2018-06-10T06:58:55.322Z,19.13
2018-06-10T07:01:23.789Z,19.63
2018-06-10T07:03:52.321Z,20.63
2018-06-10T07:06:20.884Z,19.60
2018-06-10T07:08:49.321Z,20.00
2018-06-10T07:11:17.945Z,21.13
2018-06-10T07:13:46.375Z,19.27
2018-06-10T07:16:14.844Z,18.20
2018-06-10T07:18:43.345Z,18.50
2018-06-10T07:21:11.754Z,19.40
2018-06-10T07:23:40.283Z,17.63
2018-06-10T07:26:08.695Z,19.03
2018-06-10T07:28:37.407Z,17.57
2018-06-10T07:31:05.830Z,19.90
2018-06-10T07:33:34.370Z,19.80
2018-06-10T07:36:02.834Z,21.97
2018-06-10T07:38:31.325Z,19.10
2018-06-10T07:40:59.814Z,21.37
2018-06-10T07:43:28.385Z,20.40
2018-06-10T07:45:56.884Z,19.00
2018-06-10T07:48:25.414Z,19.40
2018-06-10T07:50:53.824Z,18.97
2018-06-10T07:53:22.318Z,18.73
2018-06-10T07:55:50.826Z,20.70
2018-06-10T07:58:19.399Z,18.53
2018-06-10T08:00:47.973Z,18.23
2018-06-10T08:03:16.410Z,17.80
2018-06-10T08:05:44.902Z,16.30
2018-06-10T08:08:13.423Z,14.90
2018-06-10T08:10:41.917Z,15.70
2018-06-10T08:13:10.424Z,15.60
2018-06-10T08:15:38.948Z,15.17
2018-06-10T08:18:07.412Z,15.80
2018-06-10T08:20:35.882Z,16.37
2018-06-10T08:23:04.862Z,18.07
2018-06-10T08:25:33.333Z,16.60
2018-06-10T08:28:01.781Z,15.43
2018-06-10T08:30:30.921Z,14.87
2018-06-10T08:32:59.349Z,14.37
2018-06-10T08:35:27.845Z,12.73
2018-06-10T08:37:56.340Z,10.40
2018-06-10T08:40:24.875Z,10.40
2018-06-10T08:42:53.493Z,10.70
2018-06-10T08:45:22.135Z,12.40
2018-06-10T08:47:50.654Z,10.83
2018-06-10T08:50:19.334Z,12.10
2018-06-10T08:52:47.944Z,11.50
2018-06-10T08:55:16.511Z,11.70
2018-06-10T08:57:45.054Z,10.07
2018-06-10T09:00:13.495Z,10.20
2018-06-10T09:02:42.029Z,10.20
2018-06-10T09:05:10.717Z,11.40
2018-06-10T09:07:39.185Z,11.13
2018-06-10T09:10:07.683Z,9.50
2018-06-10T09:12:36.216Z,10.73
2018-06-10T09:15:04.758Z,10.77
2018-06-10T09:17:33.252Z,10.80
2018-06-10T09:20:02.313Z,8.80
2018-06-10T09:22:30.779Z,10.07
2018-06-10T09:24:59.252Z,9.50
2018-06-10T09:27:27.712Z,9.40
2018-06-10T09:29:56.241Z,10.30
2018-06-10T09:32:24.777Z,9.73
2018-06-10T09:34:53.241Z,9.00
2018-06-10T09:37:21.788Z,9.20
2018-06-10T09:39:50.280Z,9.80
2018-06-10T09:42:18.732Z,9.80
2018-06-10T09:44:47.222Z,9.53
2018-06-10T09:47:15.710Z,8.57
2018-06-10T09:49:43.988Z,8.83
2018-06-10T09:52:12.945Z,8.50
2018-06-10T09:54:41.473Z,9.57
2018-06-10T09:57:09.920Z,8.43
2018-06-10T09:59:38.472Z,9.80
2018-06-10T10:02:07.267Z,9.00
2018-06-10T10:04:36.285Z,10.27
2018-06-10T10:07:04.775Z,9.93
2018-06-10T10:09:33.224Z,11.10
2018-06-10T10:12:01.774Z,10.53
2018-06-10T10:14:30.345Z,10.77
2018-06-10T10:16:58.731Z,10.00
2018-06-10T10:19:28.129Z,10.17
2018-06-10T10:21:56.607Z,10.13
2018-06-10T10:24:24.847Z,11.23
2018-06-10T10:26:53.294Z,8.20
2018-06-10T10:29:21.710Z,6.33
2018-06-10T10:31:50.168Z,6.00
2018-06-10T10:34:18.629Z,5.00
2018-06-10T10:36:47.365Z,4.47
2018-06-10T10:39:15.884Z,3.50
2018-06-10T10:41:44.333Z,3.40
2018-06-10T10:44:13.429Z,2.90
2018-06-10T10:46:41.857Z,3.40
2018-06-10T10:49:10.301Z,2.77
2018-06-10T10:51:38.841Z,3.40
2018-06-10T10:54:07.444Z,3.40
2018-06-10T10:56:35.893Z,4.07
2018-06-10T10:59:04.425Z,3.90
2018-06-10T11:01:32.948Z,4.00
2018-06-10T11:04:01.501Z,4.03
2018-06-10T11:06:29.996Z,4.33
2018-06-10T11:08:58.476Z,3.40
2018-06-10T11:11:26.913Z,3.50
2018-06-10T11:13:55.466Z,3.47
2018-06-10T11:16:24.072Z,3.70
2018-06-10T11:18:52.610Z,4.10
2018-06-10T11:21:21.709Z,4.10
2018-06-10T11:23:50.167Z,4.50
2018-06-10T11:26:18.617Z,3.43
2018-06-10T11:28:47.085Z,3.20
2018-06-10T11:31:16.311Z,3.40
2018-06-10T11:33:44.784Z,3.33
2018-06-10T11:36:13.315Z,3.13
2018-06-10T11:38:41.827Z,3.33
2018-06-10T11:41:10.338Z,3.00
2018-06-10T11:43:38.872Z,2.93
2018-06-10T11:46:08.139Z,4.10
2018-06-10T11:48:36.597Z,4.17
2018-06-10T11:51:05.224Z,4.37
2018-06-10T11:53:33.729Z,3.73
2018-06-10T11:56:02.238Z,4.23
2018-06-10T11:58:30.720Z,5.00
2018-06-10T12:00:59.271Z,4.13
2018-06-10T12:03:27.745Z,4.50
2018-06-10T12:05:56.253Z,3.80
2018-06-10T12:08:24.946Z,3.60
2018-06-10T12:10:53.558Z,3.10
2018-06-10T12:13:21.949Z,3.60
2018-06-10T12:15:50.411Z,3.77
2018-06-10T12:18:18.946Z,3.30
2018-06-10T12:20:47.414Z,3.20
2018-06-10T12:23:15.565Z,4.10
2018-06-10T12:25:44.113Z,3.47
2018-06-10T12:28:12.689Z,3.10
2018-06-10T12:30:41.334Z,3.43
2018-06-10T12:33:09.796Z,3.57
2018-06-10T12:35:41.300Z,2.87
2018-06-10T12:38:09.777Z,3.13
2018-06-10T12:40:38.276Z,3.40
2018-06-10T12:43:06.744Z,3.80
2018-06-10T12:45:35.884Z,4.13
2018-06-10T12:48:04.461Z,3.70
2018-06-10T12:50:32.937Z,3.80
2018-06-10T12:53:01.506Z,3.80
2018-06-10T12:55:30.232Z,4.40
2018-06-10T12:57:58.864Z,3.40
2018-06-10T13:00:27.382Z,4.37
2018-06-10T13:02:55.933Z,3.80
2018-06-10T13:05:24.925Z,3.80
2018-06-10T13:07:54.040Z,3.70
2018-06-10T13:10:22.507Z,3.80
2018-06-10T13:12:50.976Z,4.40
2018-06-10T13:15:19.448Z,4.00
2018-06-10T13:17:47.930Z,4.20
2018-06-10T13:20:16.465Z,4.40
2018-06-10T13:22:44.932Z,4.77
2018-06-10T13:25:13.450Z,4.47
2018-06-10T13:27:42.695Z,4.43
2018-06-10T13:30:11.248Z,4.80
2018-06-10T13:32:39.685Z,5.40
2018-06-10T13:35:08.237Z,5.03
2018-06-10T13:37:36.737Z,4.80
2018-06-10T13:40:05.206Z,4.53
2018-06-10T13:42:33.787Z,4.80
2018-06-10T13:45:02.263Z,5.00
2018-06-10T13:47:30.676Z,5.30
2018-06-10T13:49:59.219Z,5.43
2018-06-10T13:52:27.763Z,5.43
2018-06-10T13:54:56.227Z,5.00
2018-06-10T13:57:25.533Z,5.07
2018-06-10T13:59:53.988Z,4.73
2018-06-10T14:02:22.525Z,4.60
2018-06-10T14:04:50.961Z,5.40
2018-06-10T14:07:19.397Z,5.00
2018-06-10T14:09:47.498Z,4.60
2018-06-10T14:12:15.968Z,4.97
2018-06-10T14:14:44.436Z,5.33
2018-06-10T14:17:12.914Z,5.53
2018-06-10T14:19:41.384Z,6.10
2018-06-10T14:22:09.817Z,5.40
2018-06-10T14:24:38.284Z,5.17
2018-06-10T14:27:06.718Z,5.90
2018-06-10T14:29:35.170Z,5.40
2018-06-10T14:32:03.797Z,7.10
2018-06-10T14:34:32.484Z,5.50
2018-06-10T14:37:01.450Z,6.00
2018-06-10T14:39:29.908Z,5.73
2018-06-10T14:41:58.348Z,6.30
2018-06-10T14:44:26.814Z,5.50
2018-06-10T14:46:55.330Z,6.10
2018-06-10T14:49:23.934Z,6.87
2018-06-10T14:51:52.434Z,6.20
2018-06-10T14:54:20.901Z,7.50
2018-06-10T14:56:55.061Z,6.57
2018-06-10T14:59:23.615Z,6.00
2018-06-10T15:01:52.147Z,6.80
2018-06-10T15:04:20.776Z,6.57
2018-06-10T15:06:49.278Z,6.37
2018-06-10T15:09:17.789Z,6.90
2018-06-10T15:11:46.334Z,5.60
2018-06-10T15:14:14.861Z,5.90
2018-06-10T15:16:43.414Z,5.63
2018-06-10T15:19:11.892Z,5.37
2018-06-10T15:21:40.690Z,4.20
2018-06-10T15:24:09.498Z,4.83
2018-06-10T15:26:38.000Z,3.60
2018-06-10T15:29:06.541Z,4.13
2018-06-10T15:31:35.109Z,3.13
2018-06-10T15:34:03.612Z,2.90
2018-06-10T15:36:32.090Z,3.10
2018-06-10T15:39:00.645Z,3.20
2018-06-10T15:41:29.156Z,3.00
2018-06-10T15:43:57.590Z,2.97
2018-06-10T15:46:26.076Z,2.97
2018-06-10T15:48:54.609Z,2.53
2018-06-10T15:51:23.077Z,3.03
2018-06-10T15:53:51.592Z,3.93
2018-06-10T15:56:20.013Z,3.17
2018-06-10T15:58:48.540Z,3.20
2018-06-10T16:01:17.606Z,3.60
2018-06-10T16:03:46.024Z,3.30
2018-06-10T16:06:14.569Z,3.00
2018-06-10T16:08:43.151Z,3.27
2018-06-10T16:11:11.658Z,2.93
2018-06-10T16:13:40.125Z,3.10
2018-06-10T16:16:08.565Z,3.53
2018-06-10T16:18:37.057Z,3.83
2018-06-10T16:21:05.469Z,3.20
2018-06-10T16:23:33.906Z,3.40
2018-06-10T16:26:02.379Z,3.13
2018-06-10T16:28:30.845Z,3.57
2018-06-10T16:30:59.896Z,3.57
2018-06-10T16:33:28.392Z,3.40
2018-06-10T16:35:57.012Z,3.50
2018-06-10T16:38:26.195Z,3.60
2018-06-10T16:40:54.654Z,3.87
2018-06-10T16:43:23.105Z,3.50
2018-06-10T16:45:51.609Z,3.93
2018-06-10T16:48:20.066Z,3.57
2018-06-10T16:50:49.429Z,3.80
2018-06-10T16:53:17.976Z,3.73
2018-06-10T16:55:46.484Z,4.10
2018-06-10T16:58:15.540Z,2.90
2018-06-10T17:00:44.979Z,3.80
2018-06-10T17:03:14.314Z,3.73
2018-06-10T17:05:42.853Z,4.30
2018-06-10T17:08:11.794Z,4.50
2018-06-10T17:10:40.295Z,3.67
2018-06-10T17:13:08.733Z,4.27
2018-06-10T17:15:36.953Z,3.70
2018-06-10T17:18:05.612Z,3.90
2018-06-10T17:20:34.069Z,3.77
2018-06-10T17:23:02.526Z,4.00
2018-06-10T17:25:31.166Z,4.13
2018-06-10T17:27:59.673Z,3.53
2018-06-10T17:30:28.162Z,4.17
2018-06-10T17:32:56.693Z,3.57
2018-06-10T17:35:25.192Z,4.73
2018-06-10T17:37:53.770Z,4.30
2018-06-10T17:40:22.217Z,4.00
2018-06-10T17:42:50.732Z,4.73
2018-06-10T17:45:19.246Z,4.80
2018-06-10T17:47:47.741Z,4.40
2018-06-10T17:50:16.279Z,3.83
2018-06-10T17:52:44.785Z,4.67
2018-06-10T17:55:13.267Z,3.70
2018-06-10T17:57:42.405Z,4.30
2018-06-10T18:00:11.438Z,4.80
2018-06-10T18:02:39.937Z,4.40
2018-06-10T18:05:08.418Z,4.57
2018-06-10T18:07:37.028Z,5.43
2018-06-10T18:10:05.620Z,4.90
2018-06-10T18:12:34.107Z,5.60
2018-06-10T18:15:02.726Z,5.30
2018-06-10T18:17:31.234Z,5.83
2018-06-10T18:19:59.829Z,7.67
2018-06-10T18:22:28.386Z,6.00
2018-06-10T18:24:56.869Z,6.10
2018-06-10T18:27:26.060Z,6.83
2018-06-10T18:29:54.553Z,5.73
2018-06-10T18:32:23.128Z,5.70
2018-06-10T18:34:51.621Z,5.60
2018-06-10T18:37:20.195Z,5.90
2018-06-10T18:39:48.637Z,5.60
2018-06-10T18:42:17.250Z,5.17
2018-06-10T18:44:45.686Z,5.43
2018-06-10T18:47:14.148Z,5.63
2018-06-10T18:49:43.266Z,5.70
2018-06-10T18:52:11.743Z,5.90
2018-06-10T18:54:40.290Z,5.60
2018-06-10T18:57:08.812Z,5.10
2018-06-10T18:59:37.356Z,5.33
2018-06-10T19:02:06.753Z,5.23
2018-06-10T19:04:35.256Z,6.50
2018-06-10T19:07:03.917Z,5.27
2018-06-10T19:09:32.395Z,5.77
2018-06-10T19:12:00.842Z,6.60
2018-06-10T19:14:29.366Z,5.73
2018-06-10T19:16:57.852Z,6.13
2018-06-10T19:19:26.277Z,6.37
2018-06-10T19:21:54.855Z,5.97
2018-06-10T19:24:23.869Z,5.60
2018-06-10T19:26:52.321Z,6.30
2018-06-10T19:29:20.795Z,5.90
2018-06-10T19:31:49.236Z,6.23
2018-06-10T19:34:18.404Z,5.27
2018-06-10T19:36:46.986Z,5.73
2018-06-10T19:39:15.497Z,5.97
2018-06-10T19:41:43.935Z,6.20
2018-06-10T19:44:12.623Z,6.37
2018-06-10T19:46:41.053Z,6.80
2018-06-10T19:49:09.541Z,5.70
2018-06-10T19:51:38.002Z,7.10
2018-06-10T19:54:06.500Z,7.00
2018-06-10T19:56:34.991Z,6.27
2018-06-10T19:59:04.115Z,5.93
2018-06-10T20:01:33.221Z,6.33
2018-06-10T20:04:01.685Z,6.83
2018-06-10T20:06:30.239Z,7.00
2018-06-10T20:08:58.770Z,6.60
2018-06-10T20:11:27.254Z,6.80
2018-06-10T20:13:55.707Z,6.40
2018-06-10T20:16:24.229Z,7.10
2018-06-10T20:18:52.668Z,6.73
2018-06-10T20:21:21.201Z,7.40
2018-06-10T20:23:49.637Z,6.87
2018-06-10T20:26:18.121Z,6.60
2018-06-10T20:28:46.627Z,6.93
2018-06-10T20:31:15.155Z,6.60
2018-06-10T20:33:43.620Z,6.87
2018-06-10T20:36:12.082Z,6.77
2018-06-10T20:38:40.514Z,7.20
2018-06-10T20:41:08.977Z,7.83
2018-06-10T20:43:37.449Z,8.00
2018-06-10T20:46:05.926Z,7.50
2018-06-10T20:48:34.510Z,8.10
2018-06-10T20:51:03.694Z,7.60
2018-06-10T20:53:32.190Z,7.57
2018-06-10T20:56:01.564Z,7.47
2018-06-10T20:58:30.038Z,7.67
2018-06-10T21:00:58.466Z,8.00
2018-06-10T21:03:26.955Z,7.07
2018-06-10T21:05:55.487Z,6.70
2018-06-10T21:08:24.530Z,7.37
2018-06-10T21:10:52.963Z,7.97
2018-06-10T21:13:21.926Z,8.20
2018-06-10T21:15:50.390Z,7.20
2018-06-10T21:18:19.090Z,8.10
2018-06-10T21:20:47.733Z,7.57
2018-06-10T21:23:16.195Z,8.07
2018-06-10T21:25:44.666Z,7.77
2018-06-10T21:28:13.126Z,7.20
2018-06-10T21:30:41.601Z,8.03
2018-06-10T21:33:10.068Z,7.40
2018-06-10T21:35:38.629Z,7.40
2018-06-10T21:38:07.695Z,7.93
2018-06-10T21:40:36.841Z,7.03
2018-06-10T21:43:05.283Z,6.57
2018-06-10T21:45:33.939Z,7.57
2018-06-10T21:48:02.406Z,7.80
2018-06-10T21:50:30.876Z,8.00
2018-06-10T21:52:59.308Z,7.30
2018-06-10T21:55:27.804Z,7.27
2018-06-10T21:57:56.257Z,6.93
2018-06-10T22:00:26.442Z,7.37
2018-06-10T22:02:55.020Z,7.47
2018-06-10T22:05:23.630Z,7.50
2018-06-10T22:07:52.170Z,6.73
2018-06-10T22:10:20.669Z,7.57
2018-06-10T22:12:49.121Z,7.77
2018-06-10T22:15:17.562Z,6.57
2018-06-10T22:17:45.963Z,7.07
2018-06-10T22:20:14.398Z,6.43
2018-06-10T22:22:42.861Z,7.10
2018-06-10T22:25:11.388Z,6.80
2018-06-10T22:27:39.496Z,7.50
2018-06-10T22:30:07.981Z,7.00
2018-06-10T22:32:36.393Z,6.90
2018-06-10T22:35:05.014Z,7.60
2018-06-10T22:37:33.502Z,7.00
2018-06-10T22:40:01.942Z,6.83
2018-06-10T22:42:30.648Z,5.90
2018-06-10T22:44:59.135Z,6.97
2018-06-10T22:47:27.658Z,8.07
2018-06-10T22:49:56.144Z,7.43
2018-06-10T22:52:24.604Z,7.20
2018-06-10T22:54:53.132Z,7.40
2018-06-10T22:57:21.590Z,7.13
2018-06-10T22:59:50.016Z,7.87
2018-06-10T23:02:18.492Z,7.43
2018-06-10T23:04:46.619Z,7.90
2018-06-10T23:07:15.149Z,7.80
2018-06-10T23:09:43.569Z,7.07
2018-06-10T23:12:12.026Z,7.70
2018-06-10T23:14:40.537Z,8.13
2018-06-10T23:17:09.066Z,7.63
2018-06-10T23:19:37.565Z,7.13
2018-06-10T23:22:06.565Z,7.17
2018-06-10T23:24:35.017Z,7.40
2018-06-10T23:27:03.455Z,7.60
2018-06-10T23:29:31.905Z,7.23
2018-06-10T23:32:00.456Z,8.10
2018-06-10T23:34:28.914Z,7.40
2018-06-10T23:36:57.456Z,7.87
2018-06-10T23:39:26.053Z,8.20
2018-06-10T23:41:54.575Z,7.90
2018-06-10T23:44:23.034Z,7.20
2018-06-10T23:46:51.687Z,8.10
2018-06-10T23:49:20.206Z,7.00
2018-06-10T23:51:48.735Z,7.27
2018-06-10T23:54:17.209Z,6.83
2018-06-10T23:56:45.733Z,7.30
2018-06-10T23:59:14.258Z,7.20
